Airfield :
LOGIN :

Register | Disclaimer

   EN    FR    IT 

 










Legend :    VFR   Marginal VFR   IFR   Intensive IFR   Very Intensive IFR
Visi :
Ceiling :
>= 8 km
>= 3000ft
5 to 8 km
1000 to 3000 ft
1500m to 5 km
500 to 1000 ft
800 to 1500m
200 to 500 ft
< 800m
< 200 ft
Symbols :   Thunderstorms  Fog  Heavy snow  Heavy precipitations  Wind > 20 kt
SIGMETs :     Misc.  Thunderstorms  Icing  Turbulence  Mountain Waves  Volcanic Ashes







- Airport Elevation : 1516 ft
- IATA code : AGB


EDMA - Augsburg

CURRENT METAR :
  • 172350Z AUTO 26004KT 230V290 9999 // BKN100/// 19/13 Q1019

EXPIRED METARs :
  • 172320Z AUTO 28003KT 9999 // BKN097/// 19/13 Q1019
  • 172250Z AUTO 24005KT 9999 // FEW098/// BKN120/// 19/13 Q1019
  • 172220Z AUTO VRB02KT 9999 // SCT110/// BKN130/// 18/13 Q1018
  • 172150Z AUTO VRB02KT 9999 // FEW075/// SCT100/// BKN120/// 19/13 Q1018
  • 172120Z AUTO 32003KT 9999 // SCT077/// SCT120/// 20/12 Q1018

TAF TAF EDMA
Valid from the 17 at 18:00 until the 18 at 03:00 UTC


171700Z 1718/1803 01005KT CAVOK
PROB30
TEMPO 1718/1720 32020G35KT TSRA BKN060CB
BECMG 1718/1720 29006KT
No reported NOTAMs for that airfield.



MET'MAP, your aeronautical weather chart ! - Copyright ORBIFLY December 2007 - Disclaimer

ORBIFLY MET'MAP TEAM :

Programming & Development : Alexandra Zaïnal
Concept & Development : Baudouin d'Aumeries
Co-Development & Prog : Marc-Olivier Méhu
Technical & hardware support : Manuel Goepfert

Contact : metmap@orbifly.com




SOURCES & CREDITS :

   NOAA